sensor_id;sensor_type;location;lat;lon;timestamp;pressure;altitude;pressure_sealevel;temperature;humidity
26823;BME280;14852;51.910;8.878;2022-07-05T00:01:09;100176.13;;;19.41;46.58
26823;BME280;14852;51.910;8.878;2022-07-05T00:03:35;100175.34;;;19.29;46.65
26823;BME280;14852;51.910;8.878;2022-07-05T00:06:01;100178.72;;;19.20;46.89
26823;BME280;14852;51.910;8.878;2022-07-05T00:08:27;100174.53;;;19.17;46.77
26823;BME280;14852;51.910;8.878;2022-07-05T00:10:52;100174.41;;;19.19;46.63
26823;BME280;14852;51.910;8.878;2022-07-05T00:13:19;100169.84;;;19.21;46.39
26823;BME280;14852;51.910;8.878;2022-07-05T00:15:45;100172.38;;;19.23;46.58
26823;BME280;14852;51.910;8.878;2022-07-05T00:18:10;100170.69;;;19.22;46.16
26823;BME280;14852;51.910;8.878;2022-07-05T00:20:36;100172.63;;;19.20;46.73
26823;BME280;14852;51.910;8.878;2022-07-05T00:23:02;100172.84;;;19.16;46.69
26823;BME280;14852;51.910;8.878;2022-07-05T00:25:28;100168.81;;;19.12;46.07
26823;BME280;14852;51.910;8.878;2022-07-05T00:27:53;100171.22;;;19.04;46.36
26823;BME280;14852;51.910;8.878;2022-07-05T00:30:19;100168.03;;;18.90;46.47
26823;BME280;14852;51.910;8.878;2022-07-05T00:32:45;100177.88;;;18.76;46.92
26823;BME280;14852;51.910;8.878;2022-07-05T00:35:11;100184.56;;;18.69;46.83
26823;BME280;14852;51.910;8.878;2022-07-05T00:37:37;100172.63;;;18.65;47.15
26823;BME280;14852;51.910;8.878;2022-07-05T00:40:04;100179.81;;;18.63;47.32
26823;BME280;14852;51.910;8.878;2022-07-05T00:42:30;100183.75;;;18.58;47.19
26823;BME280;14852;51.910;8.878;2022-07-05T00:44:56;100175.72;;;18.48;47.23
26823;BME280;14852;51.910;8.878;2022-07-05T00:47:22;100183.50;;;18.38;47.61
26823;BME280;14852;51.910;8.878;2022-07-05T00:49:48;100186.72;;;18.31;47.87
26823;BME280;14852;51.910;8.878;2022-07-05T00:52:15;100181.81;;;18.26;47.46
26823;BME280;14852;51.910;8.878;2022-07-05T00:54:41;100187.28;;;18.23;47.68
26823;BME280;14852;51.910;8.878;2022-07-05T00:57:07;100185.75;;;18.21;47.49
26823;BME280;14852;51.910;8.878;2022-07-05T00:59:34;100191.97;;;18.20;47.83
26823;BME280;14852;51.910;8.878;2022-07-05T01:02:00;100191.03;;;18.21;47.95
26823;BME280;14852;51.910;8.878;2022-07-05T01:04:26;100192.81;;;18.20;47.76
26823;BME280;14852;51.910;8.878;2022-07-05T01:06:53;100190.19;;;18.20;48.05
26823;BME280;14852;51.910;8.878;2022-07-05T01:09:20;100187.78;;;18.17;47.71
26823;BME280;14852;51.910;8.878;2022-07-05T01:11:48;100180.84;;;18.16;47.93
26823;BME280;14852;51.910;8.878;2022-07-05T01:14:18;100194.94;;;18.15;47.77
26823;BME280;14852;51.910;8.878;2022-07-05T01:16:45;100196.28;;;18.09;47.39
26823;BME280;14852;51.910;8.878;2022-07-05T01:19:12;100197.44;;;18.05;47.99
26823;BME280;14852;51.910;8.878;2022-07-05T01:21:42;100194.22;;;18.02;47.65
26823;BME280;14852;51.910;8.878;2022-07-05T01:24:13;100189.66;;;17.93;47.78
26823;BME280;14852;51.910;8.878;2022-07-05T01:26:40;100192.88;;;17.85;48.15
26823;BME280;14852;51.910;8.878;2022-07-05T01:29:07;100187.00;;;17.82;48.19
26823;BME280;14852;51.910;8.878;2022-07-05T01:31:37;100187.59;;;17.74;48.16
26823;BME280;14852;51.910;8.878;2022-07-05T01:34:04;100190.19;;;17.63;48.40
26823;BME280;14852;51.910;8.878;2022-07-05T01:36:31;100190.81;;;17.54;48.43
26823;BME280;14852;51.910;8.878;2022-07-05T01:38:58;100194.13;;;17.45;48.92
26823;BME280;14852;51.910;8.878;2022-07-05T01:41:24;100189.56;;;17.35;48.84
26823;BME280;14852;51.910;8.878;2022-07-05T01:43:50;100198.38;;;17.34;49.05
26823;BME280;14852;51.910;8.878;2022-07-05T01:46:17;100193.66;;;17.40;48.97
26823;BME280;14852;51.910;8.878;2022-07-05T01:48:47;100184.56;;;17.44;48.78
26823;BME280;14852;51.910;8.878;2022-07-05T01:51:30;100193.19;;;17.46;48.38
26823;BME280;14852;51.910;8.878;2022-07-05T01:53:58;100188.72;;;17.35;48.72
26823;BME280;14852;51.910;8.878;2022-07-05T01:56:25;100195.06;;;17.20;49.34
26823;BME280;14852;51.910;8.878;2022-07-05T01:58:52;100203.03;;;17.07;49.87
26823;BME280;14852;51.910;8.878;2022-07-05T02:01:33;100200.84;;;17.01;49.77
26823;BME280;14852;51.910;8.878;2022-07-05T02:03:59;100203.91;;;16.95;49.82
26823;BME280;14852;51.910;8.878;2022-07-05T02:06:26;100202.22;;;16.94;49.89
26823;BME280;14852;51.910;8.878;2022-07-05T02:08:51;100204.75;;;16.95;49.83
26823;BME280;14852;51.910;8.878;2022-07-05T02:11:18;100198.53;;;16.96;50.14
26823;BME280;14852;51.910;8.878;2022-07-05T02:13:44;100205.25;;;17.00;49.63
26823;BME280;14852;51.910;8.878;2022-07-05T02:16:10;100194.00;;;16.98;50.11
26823;BME280;14852;51.910;8.878;2022-07-05T02:18:36;100204.13;;;16.92;50.12
26823;BME280;14852;51.910;8.878;2022-07-05T02:21:02;100197.00;;;16.81;50.72
26823;BME280;14852;51.910;8.878;2022-07-05T02:23:28;100206.25;;;16.74;50.68
26823;BME280;14852;51.910;8.878;2022-07-05T02:25:53;100212.06;;;16.67;50.87
26823;BME280;14852;51.910;8.878;2022-07-05T02:28:19;100219.72;;;16.70;50.47
26823;BME280;14852;51.910;8.878;2022-07-05T02:30:48;100218.44;;;16.75;50.60
26823;BME280;14852;51.910;8.878;2022-07-05T02:33:14;100207.81;;;16.77;50.71
26823;BME280;14852;51.910;8.878;2022-07-05T02:35:40;100222.13;;;16.73;50.71
26823;BME280;14852;51.910;8.878;2022-07-05T02:38:06;100221.72;;;16.66;50.85
26823;BME280;14852;51.910;8.878;2022-07-05T02:40:32;100212.97;;;16.53;51.21
26823;BME280;14852;51.910;8.878;2022-07-05T02:42:59;100218.34;;;16.39;51.68
26823;BME280;14852;51.910;8.878;2022-07-05T02:45:25;100218.78;;;16.33;51.49
26823;BME280;14852;51.910;8.878;2022-07-05T02:47:57;100226.19;;;16.39;51.60
26823;BME280;14852;51.910;8.878;2022-07-05T02:50:23;100220.34;;;16.48;51.07
26823;BME280;14852;51.910;8.878;2022-07-05T02:52:51;100210.59;;;16.50;51.40
26823;BME280;14852;51.910;8.878;2022-07-05T02:55:17;100221.78;;;16.52;51.01
26823;BME280;14852;51.910;8.878;2022-07-05T02:57:44;100216.22;;;16.56;51.45
26823;BME280;14852;51.910;8.878;2022-07-05T03:00:13;100210.47;;;16.64;51.14
26823;BME280;14852;51.910;8.878;2022-07-05T03:02:47;100209.81;;;16.73;50.82
26823;BME280;14852;51.910;8.878;2022-07-05T03:05:14;100212.25;;;16.76;50.69
26823;BME280;14852;51.910;8.878;2022-07-05T03:07:46;100221.59;;;16.80;50.92
26823;BME280;14852;51.910;8.878;2022-07-05T03:10:12;100219.78;;;16.81;50.91
26823;BME280;14852;51.910;8.878;2022-07-05T03:12:38;100216.66;;;16.76;51.09
26823;BME280;14852;51.910;8.878;2022-07-05T03:15:08;100221.88;;;16.76;51.19
26823;BME280;14852;51.910;8.878;2022-07-05T03:17:34;100221.88;;;16.76;51.24
26823;BME280;14852;51.910;8.878;2022-07-05T03:20:00;100221.16;;;16.74;51.44
26823;BME280;14852;51.910;8.878;2022-07-05T03:22:27;100217.94;;;16.70;51.21
26823;BME280;14852;51.910;8.878;2022-07-05T03:24:54;100229.69;;;16.64;51.58
26823;BME280;14852;51.910;8.878;2022-07-05T03:27:21;100233.88;;;16.67;51.77
26823;BME280;14852;51.910;8.878;2022-07-05T03:29:51;100233.13;;;16.78;51.30
26823;BME280;14852;51.910;8.878;2022-07-05T03:32:17;100224.38;;;16.90;51.38
26823;BME280;14852;51.910;8.878;2022-07-05T03:34:43;100227.94;;;17.01;50.94
26823;BME280;14852;51.910;8.878;2022-07-05T03:37:10;100229.78;;;17.12;50.69
26823;BME280;14852;51.910;8.878;2022-07-05T03:39:36;100227.88;;;17.14;51.11
26823;BME280;14852;51.910;8.878;2022-07-05T03:42:02;100223.59;;;17.13;51.09
26823;BME280;14852;51.910;8.878;2022-07-05T03:44:30;100233.47;;;17.10;51.12
26823;BME280;14852;51.910;8.878;2022-07-05T03:46:59;100235.75;;;17.14;51.13
26823;BME280;14852;51.910;8.878;2022-07-05T03:49:26;100238.78;;;17.21;51.48
26823;BME280;14852;51.910;8.878;2022-07-05T03:51:52;100241.59;;;17.30;51.22
26823;BME280;14852;51.910;8.878;2022-07-05T03:54:18;100241.53;;;17.43;51.24
26823;BME280;14852;51.910;8.878;2022-07-05T03:56:44;100238.94;;;17.54;50.75
26823;BME280;14852;51.910;8.878;2022-07-05T03:59:12;100240.28;;;17.60;50.61
26823;BME280;14852;51.910;8.878;2022-07-05T04:01:38;100242.94;;;17.60;51.12
26823;BME280;14852;51.910;8.878;2022-07-05T04:04:05;100236.47;;;17.53;51.44
26823;BME280;14852;51.910;8.878;2022-07-05T04:06:32;100237.25;;;17.42;51.61
26823;BME280;14852;51.910;8.878;2022-07-05T04:09:00;100234.00;;;17.38;52.09
26823;BME280;14852;51.910;8.878;2022-07-05T04:11:26;100235.56;;;17.41;51.89
26823;BME280;14852;51.910;8.878;2022-07-05T04:13:53;100232.25;;;17.50;51.72
26823;BME280;14852;51.910;8.878;2022-07-05T04:16:19;100238.63;;;17.59;51.47
26823;BME280;14852;51.910;8.878;2022-07-05T04:18:46;100246.25;;;17.75;50.85
26823;BME280;14852;51.910;8.878;2022-07-05T04:21:12;100236.13;;;17.92;51.08
26823;BME280;14852;51.910;8.878;2022-07-05T04:23:38;100244.44;;;18.10;50.73
26823;BME280;14852;51.910;8.878;2022-07-05T04:26:04;100248.88;;;18.21;50.45
26823;BME280;14852;51.910;8.878;2022-07-05T04:28:35;100238.09;;;18.24;51.14
26823;BME280;14852;51.910;8.878;2022-07-05T04:31:03;100236.22;;;18.26;50.76
26823;BME280;14852;51.910;8.878;2022-07-05T04:33:32;100236.09;;;18.38;50.47
26823;BME280;14852;51.910;8.878;2022-07-05T04:35:59;100250.94;;;18.51;50.72
26823;BME280;14852;51.910;8.878;2022-07-05T04:38:24;100245.22;;;18.57;50.51
26823;BME280;14852;51.910;8.878;2022-07-05T04:40:51;100243.78;;;18.53;50.88
26823;BME280;14852;51.910;8.878;2022-07-05T04:43:18;100239.69;;;18.49;50.71
26823;BME280;14852;51.910;8.878;2022-07-05T04:45:44;100246.75;;;18.48;50.51
26823;BME280;14852;51.910;8.878;2022-07-05T04:48:10;100247.97;;;18.44;50.64
26823;BME280;14852;51.910;8.878;2022-07-05T04:50:38;100251.19;;;18.48;50.64
26823;BME280;14852;51.910;8.878;2022-07-05T04:53:05;100247.88;;;18.68;50.41
26823;BME280;14852;51.910;8.878;2022-07-05T04:55:31;100250.84;;;18.97;50.13
26823;BME280;14852;51.910;8.878;2022-07-05T04:57:57;100247.66;;;19.36;49.56
26823;BME280;14852;51.910;8.878;2022-07-05T05:00:23;100250.81;;;19.62;49.13
26823;BME280;14852;51.910;8.878;2022-07-05T05:02:48;100245.97;;;19.78;48.53
26823;BME280;14852;51.910;8.878;2022-07-05T05:05:14;100247.41;;;19.82;48.92
26823;BME280;14852;51.910;8.878;2022-07-05T05:07:44;100247.41;;;20.24;48.17
26823;BME280;14852;51.910;8.878;2022-07-05T05:10:10;100242.84;;;21.37;46.37
26823;BME280;14852;51.910;8.878;2022-07-05T05:12:36;100238.38;;;22.70;43.51
26823;BME280;14852;51.910;8.878;2022-07-05T05:15:03;100228.72;;;23.69;41.93
26823;BME280;14852;51.910;8.878;2022-07-05T05:17:43;100233.50;;;24.61;40.67
26823;BME280;14852;51.910;8.878;2022-07-05T05:20:13;100228.38;;;25.68;38.76
26823;BME280;14852;51.910;8.878;2022-07-05T05:22:40;100228.31;;;26.88;37.16
26823;BME280;14852;51.910;8.878;2022-07-05T05:25:07;100236.47;;;27.49;36.24
26823;BME280;14852;51.910;8.878;2022-07-05T05:27:34;100228.59;;;28.01;35.67
26823;BME280;14852;51.910;8.878;2022-07-05T05:29:59;100233.53;;;27.89;36.03
26823;BME280;14852;51.910;8.878;2022-07-05T05:32:25;100237.03;;;27.13;37.53
26823;BME280;14852;51.910;8.878;2022-07-05T05:34:51;100244.94;;;26.90;37.32
26823;BME280;14852;51.910;8.878;2022-07-05T05:37:17;100246.59;;;26.52;37.97
26823;BME280;14852;51.910;8.878;2022-07-05T05:39:42;100252.16;;;25.86;39.10
26823;BME280;14852;51.910;8.878;2022-07-05T05:42:08;100268.16;;;25.19;39.83
26823;BME280;14852;51.910;8.878;2022-07-05T05:44:34;100270.56;;;24.71;41.04
26823;BME280;14852;51.910;8.878;2022-07-05T05:47:00;100274.59;;;25.01;40.20
26823;BME280;14852;51.910;8.878;2022-07-05T05:49:25;100260.22;;;26.57;37.52
26823;BME280;14852;51.910;8.878;2022-07-05T05:51:51;100257.94;;;27.32;35.67
26823;BME280;14852;51.910;8.878;2022-07-05T05:54:17;100268.47;;;26.95;36.03
26823;BME280;14852;51.910;8.878;2022-07-05T05:56:43;100271.31;;;26.30;37.54
26823;BME280;14852;51.910;8.878;2022-07-05T05:59:09;100278.28;;;25.82;38.19
26823;BME280;14852;51.910;8.878;2022-07-05T06:01:34;100281.88;;;25.49;38.78
26823;BME280;14852;51.910;8.878;2022-07-05T06:04:00;100284.69;;;25.55;38.75
26823;BME280;14852;51.910;8.878;2022-07-05T06:06:26;100281.72;;;25.58;38.75
26823;BME280;14852;51.910;8.878;2022-07-05T06:08:52;100290.94;;;25.22;39.35
26823;BME280;14852;51.910;8.878;2022-07-05T06:11:17;100297.25;;;24.87;39.72
26823;BME280;14852;51.910;8.878;2022-07-05T06:13:43;100294.28;;;24.56;40.55
26823;BME280;14852;51.910;8.878;2022-07-05T06:16:09;100293.78;;;24.35;40.52
26823;BME280;14852;51.910;8.878;2022-07-05T06:18:35;100293.03;;;24.25;40.69
26823;BME280;14852;51.910;8.878;2022-07-05T06:21:01;100297.50;;;24.24;40.86
26823;BME280;14852;51.910;8.878;2022-07-05T06:23:27;100300.91;;;24.16;41.01
26823;BME280;14852;51.910;8.878;2022-07-05T06:25:53;100302.38;;;24.11;40.85
26823;BME280;14852;51.910;8.878;2022-07-05T06:28:18;100307.69;;;24.29;40.68
26823;BME280;14852;51.910;8.878;2022-07-05T06:30:44;100308.72;;;24.62;39.98
26823;BME280;14852;51.910;8.878;2022-07-05T06:33:10;100310.13;;;24.74;39.68
26823;BME280;14852;51.910;8.878;2022-07-05T06:35:36;100305.47;;;24.68;40.33
26823;BME280;14852;51.910;8.878;2022-07-05T06:38:07;100305.63;;;24.66;40.14
26823;BME280;14852;51.910;8.878;2022-07-05T06:40:36;100305.88;;;25.15;39.03
26823;BME280;14852;51.910;8.878;2022-07-05T06:43:06;100306.56;;;25.91;37.81
26823;BME280;14852;51.910;8.878;2022-07-05T06:45:54;100310.31;;;26.78;36.52
26823;BME280;14852;51.910;8.878;2022-07-05T06:48:21;100305.88;;;27.49;35.78
26823;BME280;14852;51.910;8.878;2022-07-05T06:50:47;100308.06;;;27.99;34.64
26823;BME280;14852;51.910;8.878;2022-07-05T06:53:12;100307.13;;;28.96;33.48
26823;BME280;14852;51.910;8.878;2022-07-05T06:55:39;100303.78;;;29.38;32.62
26823;BME280;14852;51.910;8.878;2022-07-05T06:58:10;100312.78;;;29.52;32.37
26823;BME280;14852;51.910;8.878;2022-07-05T07:00:38;100313.72;;;29.44;32.10
26823;BME280;14852;51.910;8.878;2022-07-05T07:03:04;100311.63;;;29.10;32.37
26823;BME280;14852;51.910;8.878;2022-07-05T07:05:30;100318.78;;;28.51;33.16
26823;BME280;14852;51.910;8.878;2022-07-05T07:07:55;100311.97;;;28.11;34.21
26823;BME280;14852;51.910;8.878;2022-07-05T07:10:40;100313.50;;;28.05;34.64
26823;BME280;14852;51.910;8.878;2022-07-05T07:13:06;100319.56;;;27.99;33.94
26823;BME280;14852;51.910;8.878;2022-07-05T07:15:32;100316.50;;;27.88;34.09
26823;BME280;14852;51.910;8.878;2022-07-05T07:17:59;100317.09;;;27.98;33.69
26823;BME280;14852;51.910;8.878;2022-07-05T07:20:26;100323.25;;;27.98;33.68
26823;BME280;14852;51.910;8.878;2022-07-05T07:22:52;100312.53;;;28.44;32.72
26823;BME280;14852;51.910;8.878;2022-07-05T07:25:17;100308.81;;;29.48;31.47
26823;BME280;14852;51.910;8.878;2022-07-05T07:27:48;100313.34;;;30.05;30.84
26823;BME280;14852;51.910;8.878;2022-07-05T07:30:17;100306.75;;;30.91;29.07
26823;BME280;14852;51.910;8.878;2022-07-05T07:32:45;100300.69;;;31.71;28.04
26823;BME280;14852;51.910;8.878;2022-07-05T07:35:11;100306.66;;;31.66;27.96
26823;BME280;14852;51.910;8.878;2022-07-05T07:37:37;100310.06;;;31.41;28.91
26823;BME280;14852;51.910;8.878;2022-07-05T07:40:04;100313.56;;;30.93;29.47
26823;BME280;14852;51.910;8.878;2022-07-05T07:42:31;100309.63;;;30.89;29.98
26823;BME280;14852;51.910;8.878;2022-07-05T07:44:56;100309.16;;;31.14;29.21
26823;BME280;14852;51.910;8.878;2022-07-05T07:47:23;100318.50;;;30.90;29.06
26823;BME280;14852;51.910;8.878;2022-07-05T07:49:49;100309.00;;;30.87;28.97
26823;BME280;14852;51.910;8.878;2022-07-05T07:52:15;100310.41;;;30.83;28.46
26823;BME280;14852;51.910;8.878;2022-07-05T07:54:41;100307.44;;;31.06;28.49
26823;BME280;14852;51.910;8.878;2022-07-05T07:57:08;100312.97;;;30.91;28.43
26823;BME280;14852;51.910;8.878;2022-07-05T07:59:34;100312.50;;;30.88;28.68
26823;BME280;14852;51.910;8.878;2022-07-05T08:02:00;100304.66;;;31.27;28.52
26823;BME280;14852;51.910;8.878;2022-07-05T08:04:27;100309.16;;;31.14;28.12
26823;BME280;14852;51.910;8.878;2022-07-05T08:06:53;100304.75;;;31.06;28.17
26823;BME280;14852;51.910;8.878;2022-07-05T08:09:18;100306.66;;;31.73;27.56
26823;BME280;14852;51.910;8.878;2022-07-05T08:11:46;100312.50;;;31.83;27.28
26823;BME280;14852;51.910;8.878;2022-07-05T08:14:13;100302.72;;;32.88;25.98
26823;BME280;14852;51.910;8.878;2022-07-05T08:16:39;100292.03;;;34.45;24.01
26823;BME280;14852;51.910;8.878;2022-07-05T08:19:05;100283.72;;;35.01;22.97
26823;BME280;14852;51.910;8.878;2022-07-05T08:21:49;100284.25;;;35.28;22.98
26823;BME280;14852;51.910;8.878;2022-07-05T08:24:15;100290.47;;;35.29;22.92
26823;BME280;14852;51.910;8.878;2022-07-05T08:26:41;100281.53;;;35.10;23.16
26823;BME280;14852;51.910;8.878;2022-07-05T08:29:11;100290.84;;;35.14;23.20
26823;BME280;14852;51.910;8.878;2022-07-05T08:31:43;100288.09;;;34.84;23.92
26823;BME280;14852;51.910;8.878;2022-07-05T08:34:11;100280.09;;;34.53;24.19
26823;BME280;14852;51.910;8.878;2022-07-05T08:36:40;100280.69;;;33.87;24.76
26823;BME280;14852;51.910;8.878;2022-07-05T08:39:07;100294.72;;;33.13;25.74
26823;BME280;14852;51.910;8.878;2022-07-05T08:41:40;100287.66;;;32.60;26.22
26823;BME280;14852;51.910;8.878;2022-07-05T08:44:08;100283.97;;;32.22;26.49
26823;BME280;14852;51.910;8.878;2022-07-05T08:46:38;100287.28;;;32.04;27.35
26823;BME280;14852;51.910;8.878;2022-07-05T08:49:05;100290.16;;;32.02;27.08
26823;BME280;14852;51.910;8.878;2022-07-05T08:51:36;100298.22;;;32.02;26.99
26823;BME280;14852;51.910;8.878;2022-07-05T08:54:03;100288.50;;;32.01;27.04
26823;BME280;14852;51.910;8.878;2022-07-05T08:56:30;100288.72;;;32.00;27.19
26823;BME280;14852;51.910;8.878;2022-07-05T08:58:56;100289.53;;;31.94;27.08
26823;BME280;14852;51.910;8.878;2022-07-05T09:01:22;100288.09;;;31.72;26.99
26823;BME280;14852;51.910;8.878;2022-07-05T09:03:51;100286.16;;;31.59;26.91
26823;BME280;14852;51.910;8.878;2022-07-05T09:06:21;100290.94;;;31.63;26.22
26823;BME280;14852;51.910;8.878;2022-07-05T09:08:50;100297.72;;;31.53;26.62
26823;BME280;14852;51.910;8.878;2022-07-05T09:11:16;100295.41;;;31.37;26.55
26823;BME280;14852;51.910;8.878;2022-07-05T09:13:50;100294.19;;;31.46;26.66
26823;BME280;14852;51.910;8.878;2022-07-05T09:16:17;100291.75;;;31.57;26.46
26823;BME280;14852;51.910;8.878;2022-07-05T09:18:52;100300.59;;;31.45;25.69
26823;BME280;14852;51.910;8.878;2022-07-05T09:21:19;100297.41;;;31.15;26.34
26823;BME280;14852;51.910;8.878;2022-07-05T09:23:59;100296.69;;;31.06;26.80
26823;BME280;14852;51.910;8.878;2022-07-05T09:26:39;100293.72;;;30.88;27.08
26823;BME280;14852;51.910;8.878;2022-07-05T09:29:09;100296.50;;;30.67;26.98
26823;BME280;14852;51.910;8.878;2022-07-05T09:31:37;100299.97;;;30.33;27.22
26823;BME280;14852;51.910;8.878;2022-07-05T09:34:06;100303.25;;;30.07;27.15
26823;BME280;14852;51.910;8.878;2022-07-05T09:36:58;100304.72;;;30.09;27.59
26823;BME280;14852;51.910;8.878;2022-07-05T09:42:16;100291.94;;;30.33;27.56
26823;BME280;14852;51.910;8.878;2022-07-05T09:44:51;100291.47;;;30.29;26.92
26823;BME280;14852;51.910;8.878;2022-07-05T09:47:27;100286.06;;;30.50;26.90
26823;BME280;14852;51.910;8.878;2022-07-05T09:49:58;100282.34;;;30.79;26.39
26823;BME280;14852;51.910;8.878;2022-07-05T09:52:41;100281.06;;;31.10;25.99
26823;BME280;14852;51.910;8.878;2022-07-05T09:55:13;100286.31;;;30.90;25.21
26823;BME280;14852;51.910;8.878;2022-07-05T09:57:43;100298.09;;;30.54;25.58
26823;BME280;14852;51.910;8.878;2022-07-05T10:00:12;100300.28;;;30.23;26.33
26823;BME280;14852;51.910;8.878;2022-07-05T10:02:51;100295.44;;;30.12;25.84
26823;BME280;14852;51.910;8.878;2022-07-05T10:05:25;100299.78;;;30.13;25.86
26823;BME280;14852;51.910;8.878;2022-07-05T10:07:58;100292.38;;;30.15;26.21
26823;BME280;14852;51.910;8.878;2022-07-05T10:10:26;100296.16;;;30.20;25.60
26823;BME280;14852;51.910;8.878;2022-07-05T10:12:56;100296.44;;;30.04;25.64
26823;BME280;14852;51.910;8.878;2022-07-05T10:15:28;100294.88;;;29.95;25.62
26823;BME280;14852;51.910;8.878;2022-07-05T10:20:41;100295.06;;;30.15;25.67
26823;BME280;14852;51.910;8.878;2022-07-05T10:25:39;100299.06;;;30.25;25.43
26823;BME280;14852;51.910;8.878;2022-07-05T10:28:07;100292.34;;;30.57;25.26
26823;BME280;14852;51.910;8.878;2022-07-05T10:30:34;100288.38;;;30.94;24.92
26823;BME280;14852;51.910;8.878;2022-07-05T10:33:06;100285.41;;;31.17;24.47
26823;BME280;14852;51.910;8.878;2022-07-05T10:35:33;100282.97;;;31.29;24.00
26823;BME280;14852;51.910;8.878;2022-07-05T10:37:59;100276.97;;;31.20;23.72
26823;BME280;14852;51.910;8.878;2022-07-05T10:40:26;100277.19;;;31.25;23.89
26823;BME280;14852;51.910;8.878;2022-07-05T10:43:00;100273.44;;;31.13;23.70
26823;BME280;14852;51.910;8.878;2022-07-05T10:45:34;100278.84;;;30.85;24.38
26823;BME280;14852;51.910;8.878;2022-07-05T10:51:13;100281.06;;;30.47;24.35
26823;BME280;14852;51.910;8.878;2022-07-05T10:58:38;100265.31;;;31.00;24.19
26823;BME280;14852;51.910;8.878;2022-07-05T11:06:32;100264.69;;;31.05;23.28
26823;BME280;14852;51.910;8.878;2022-07-05T11:11:44;100267.97;;;31.00;23.43
26823;BME280;14852;51.910;8.878;2022-07-05T11:19:34;100263.41;;;30.94;23.31
26823;BME280;14852;51.910;8.878;2022-07-05T11:22:07;100261.91;;;30.85;23.02
26823;BME280;14852;51.910;8.878;2022-07-05T11:24:36;100265.91;;;30.54;23.33
26823;BME280;14852;51.910;8.878;2022-07-05T11:27:09;100269.84;;;30.31;23.31
26823;BME280;14852;51.910;8.878;2022-07-05T11:29:46;100266.50;;;30.29;24.15
26823;BME280;14852;51.910;8.878;2022-07-05T11:35:11;100274.38;;;30.30;23.60
26823;BME280;14852;51.910;8.878;2022-07-05T11:37:57;100267.59;;;30.34;23.75
26823;BME280;14852;51.910;8.878;2022-07-05T11:40:26;100265.13;;;30.33;23.75
26823;BME280;14852;51.910;8.878;2022-07-05T11:42:52;100263.72;;;30.15;23.45
26823;BME280;14852;51.910;8.878;2022-07-05T11:45:18;100264.06;;;30.06;23.83
26823;BME280;14852;51.910;8.878;2022-07-05T11:47:44;100259.22;;;29.95;23.97
26823;BME280;14852;51.910;8.878;2022-07-05T11:50:11;100253.16;;;30.07;23.91
26823;BME280;14852;51.910;8.878;2022-07-05T11:52:37;100251.44;;;30.28;23.28
26823;BME280;14852;51.910;8.878;2022-07-05T11:55:08;100247.59;;;30.37;23.09
26823;BME280;14852;51.910;8.878;2022-07-05T11:57:36;100241.25;;;30.44;23.29
26823;BME280;14852;51.910;8.878;2022-07-05T12:00:04;100245.28;;;30.62;23.43
26823;BME280;14852;51.910;8.878;2022-07-05T12:02:43;100236.06;;;30.71;23.47
26823;BME280;14852;51.910;8.878;2022-07-05T12:05:09;100233.16;;;30.66;23.36
26823;BME280;14852;51.910;8.878;2022-07-05T12:07:34;100236.25;;;30.69;22.87
26823;BME280;14852;51.910;8.878;2022-07-05T12:10:03;100226.84;;;30.86;22.77
26823;BME280;14852;51.910;8.878;2022-07-05T12:12:48;100230.16;;;30.95;23.11
26823;BME280;14852;51.910;8.878;2022-07-05T12:15:19;100222.31;;;30.93;23.30
26823;BME280;14852;51.910;8.878;2022-07-05T12:17:48;100232.19;;;30.80;22.92
26823;BME280;14852;51.910;8.878;2022-07-05T12:20:22;100230.41;;;30.59;23.00
26823;BME280;14852;51.910;8.878;2022-07-05T12:22:49;100228.03;;;30.43;23.09
26823;BME280;14852;51.910;8.878;2022-07-05T12:25:20;100225.47;;;30.28;23.03
26823;BME280;14852;51.910;8.878;2022-07-05T12:27:49;100221.53;;;30.24;22.77
26823;BME280;14852;51.910;8.878;2022-07-05T12:30:16;100228.88;;;30.43;22.86
26823;BME280;14852;51.910;8.878;2022-07-05T12:38:10;100226.22;;;30.50;23.16
26823;BME280;14852;51.910;8.878;2022-07-05T12:40:38;100231.66;;;30.29;23.13
26823;BME280;14852;51.910;8.878;2022-07-05T12:43:10;100225.75;;;30.12;23.21
26823;BME280;14852;51.910;8.878;2022-07-05T12:45:42;100228.22;;;30.07;23.40
26823;BME280;14852;51.910;8.878;2022-07-05T12:48:10;100227.13;;;30.01;23.78
26823;BME280;14852;51.910;8.878;2022-07-05T12:50:48;100220.84;;;29.87;23.50
26823;BME280;14852;51.910;8.878;2022-07-05T12:53:15;100222.44;;;29.82;23.44
26823;BME280;14852;51.910;8.878;2022-07-05T12:56:05;100222.63;;;29.80;23.23
26823;BME280;14852;51.910;8.878;2022-07-05T12:58:55;100228.56;;;29.97;23.63
26823;BME280;14852;51.910;8.878;2022-07-05T13:01:30;100234.50;;;30.20;23.21
26823;BME280;14852;51.910;8.878;2022-07-05T13:04:13;100227.56;;;30.33;23.26
26823;BME280;14852;51.910;8.878;2022-07-05T13:06:51;100227.38;;;30.34;23.05
26823;BME280;14852;51.910;8.878;2022-07-05T13:12:18;100224.19;;;30.24;22.91
26823;BME280;14852;51.910;8.878;2022-07-05T13:14:52;100232.78;;;30.13;23.29
26823;BME280;14852;51.910;8.878;2022-07-05T13:17:22;100227.78;;;30.03;22.87
26823;BME280;14852;51.910;8.878;2022-07-05T13:19:51;100227.53;;;29.98;22.99
26823;BME280;14852;51.910;8.878;2022-07-05T13:22:18;100239.56;;;30.09;23.08
26823;BME280;14852;51.910;8.878;2022-07-05T13:24:45;100231.81;;;30.20;22.73
26823;BME280;14852;51.910;8.878;2022-07-05T13:27:12;100220.31;;;30.27;22.98
26823;BME280;14852;51.910;8.878;2022-07-05T13:29:39;100226.56;;;30.34;22.90
26823;BME280;14852;51.910;8.878;2022-07-05T13:32:05;100227.59;;;30.39;22.87
26823;BME280;14852;51.910;8.878;2022-07-05T13:34:31;100227.22;;;30.42;22.86
26823;BME280;14852;51.910;8.878;2022-07-05T13:36:59;100232.38;;;30.44;23.02